Time;durP1;ratioP1;P1;durP2;ratioP2;P2;SDS_P1;SDS_P2;PMS_P1;PMS_P2;Temp;Humidity;BMP_temperature;BMP_pressure;BME280_temperature;BME280_humidity;BME280_pressure;Samples;Min_cycle;Max_cycle;Signal;HPM_P1;HPM_P2
2022/09/18 00:01:11;;;;;;;8.43;1.90;;;13.40;75.20;;;;;;4998869;28;20576;-74
2022/09/18 00:03:40;;;;;;;8.50;1.90;;;13.40;75.30;;;;;;4995654;28;20498;-74
2022/09/18 00:06:12;;;;;;;7.03;1.73;;;13.40;75.40;;;;;;4998349;28;20463;-74
2022/09/18 00:08:42;;;;;;;7.60;2.13;;;13.40;75.40;;;;;;5002952;28;20492;-74
2022/09/18 00:11:12;;;;;;;6.90;2.00;;;13.40;75.50;;;;;;5000799;28;20567;-74
2022/09/18 00:13:41;;;;;;;6.93;2.10;;;13.40;75.60;;;;;;4994241;28;20477;-74
2022/09/18 00:16:12;;;;;;;8.30;1.87;;;13.40;75.60;;;;;;5012355;28;20579;-74
2022/09/18 00:18:40;;;;;;;9.83;2.03;;;13.40;75.60;;;;;;5001334;28;20933;-74
2022/09/18 00:21:11;;;;;;;7.27;2.23;;;13.40;75.70;;;;;;4997399;28;20489;-74
2022/09/18 00:23:40;;;;;;;5.40;1.33;;;13.40;75.80;;;;;;5009314;28;21351;-74
2022/09/18 00:26:10;;;;;;;7.57;2.03;;;13.40;75.90;;;;;;4994891;28;20461;-74
2022/09/18 00:28:38;;;;;;;12.43;2.80;;;13.40;75.80;;;;;;4997222;28;20527;-74
2022/09/18 00:31:07;;;;;;;10.13;2.90;;;13.30;75.90;;;;;;4993170;28;20458;-74
2022/09/18 00:33:36;;;;;;;8.80;1.97;;;13.30;76.00;;;;;;5001148;28;21053;-74
2022/09/18 00:36:06;;;;;;;6.80;2.00;;;13.30;76.10;;;;;;5005980;28;20560;-74
2022/09/18 00:38:36;;;;;;;6.50;2.00;;;13.30;76.10;;;;;;5004727;28;20523;-73
2022/09/18 00:41:06;;;;;;;8.50;2.53;;;13.40;76.30;;;;;;5009048;28;20475;-74
2022/09/18 00:43:36;;;;;;;8.03;2.00;;;13.40;76.20;;;;;;5005025;28;20481;-72
2022/09/18 00:46:07;;;;;;;6.77;2.10;;;13.40;76.20;;;;;;5001626;28;20485;-75
2022/09/18 00:48:43;;;;;;;4.30;1.73;;;13.40;76.20;;;;;;5005394;28;20909;-73
2022/09/18 00:51:12;;;;;;;5.87;1.73;;;13.40;76.30;;;;;;5006002;28;20982;-74
2022/09/18 00:53:47;;;;;;;7.30;1.90;;;13.40;76.40;;;;;;5001066;28;20488;-74
2022/09/18 00:56:16;;;;;;;8.67;1.93;;;13.40;76.30;;;;;;5017625;28;20464;-74
2022/09/18 00:58:45;;;;;;;7.87;2.40;;;13.40;76.30;;;;;;5001570;28;20456;-74
2022/09/18 01:01:13;;;;;;;8.57;2.13;;;13.40;76.30;;;;;;5002191;28;20489;-74
2022/09/18 01:03:41;;;;;;;5.80;2.17;;;13.40;76.40;;;;;;5001791;28;20477;-75
2022/09/18 01:06:14;;;;;;;7.13;2.23;;;13.40;76.60;;;;;;5016890;28;20870;-75
2022/09/18 01:08:55;;;;;;;8.40;2.00;;;13.40;76.70;;;;;;4998136;28;20508;-75
2022/09/18 01:11:36;;;;;;;10.97;1.77;;;13.40;76.70;;;;;;4999757;28;20490;-75
2022/09/18 01:14:16;;;;;;;7.00;1.90;;;13.50;76.70;;;;;;5017836;28;20480;-74
2022/09/18 01:16:52;;;;;;;7.00;2.87;;;13.50;76.60;;;;;;5016480;28;20449;-75
2022/09/18 01:19:43;;;;;;;5.53;2.17;;;13.50;76.60;;;;;;5005398;28;20469;-75
2022/09/18 01:22:22;;;;;;;11.53;1.93;;;13.50;76.40;;;;;;5005003;28;20475;-74
2022/09/18 01:25:07;;;;;;;6.80;2.13;;;13.50;76.60;;;;;;5017042;28;20470;-75
2022/09/18 01:27:46;;;;;;;8.40;2.37;;;13.50;76.60;;;;;;5004796;28;20555;-74
2022/09/18 01:30:14;;;;;;;7.23;2.03;;;13.50;76.40;;;;;;5014358;28;20514;-75
2022/09/18 01:32:47;;;;;;;9.27;2.43;;;13.50;76.50;;;;;;5000164;28;20486;-74
2022/09/18 01:35:20;;;;;;;6.50;1.93;;;13.50;76.50;;;;;;5009214;28;21001;-74
2022/09/18 01:38:13;;;;;;;6.70;1.77;;;13.60;76.50;;;;;;5005398;28;20466;-74
2022/09/18 01:40:47;;;;;;;6.30;2.40;;;13.50;76.40;;;;;;5019130;28;20483;-74
2022/09/18 01:43:19;;;;;;;7.40;2.03;;;13.60;76.50;;;;;;5005340;28;20847;-74
2022/09/18 01:45:51;;;;;;;9.30;2.53;;;13.60;76.40;;;;;;5019053;28;20462;-74
2022/09/18 01:48:29;;;;;;;10.70;2.63;;;13.60;76.40;;;;;;5017142;28;20986;-73
2022/09/18 01:51:04;;;;;;;6.10;2.50;;;13.50;76.50;;;;;;5014013;28;20539;-74
2022/09/18 01:53:37;;;;;;;9.83;2.43;;;13.50;76.40;;;;;;5017693;28;20481;-73
2022/09/18 01:56:10;;;;;;;8.30;2.40;;;13.50;76.50;;;;;;5004421;28;20485;-73
2022/09/18 01:58:40;;;;;;;11.43;2.40;;;13.50;76.60;;;;;;5009326;28;20461;-74
2022/09/18 02:01:13;;;;;;;8.50;1.80;;;13.50;76.50;;;;;;4997136;28;20484;-75
2022/09/18 02:03:44;;;;;;;7.67;2.07;;;13.50;76.60;;;;;;5005755;28;21134;-74
2022/09/18 02:06:18;;;;;;;9.57;2.17;;;13.50;76.60;;;;;;5016956;28;20461;-74
2022/09/18 02:08:48;;;;;;;7.80;3.33;;;13.40;76.60;;;;;;5020754;28;20460;-74
2022/09/18 02:11:19;;;;;;;8.20;3.23;;;13.40;76.70;;;;;;5006484;28;20560;-75
2022/09/18 02:13:56;;;;;;;6.37;2.10;;;13.40;76.80;;;;;;5000560;28;20491;-74
2022/09/18 02:16:34;;;;;;;8.20;2.40;;;13.40;76.80;;;;;;5006699;28;20548;-74
2022/09/18 02:19:07;;;;;;;5.23;2.10;;;13.40;76.90;;;;;;5005814;28;20531;-74
2022/09/18 02:21:37;;;;;;;9.20;2.27;;;13.40;76.90;;;;;;5005822;28;20583;-75
2022/09/18 02:24:08;;;;;;;7.10;2.20;;;13.40;76.90;;;;;;5000423;28;20552;-74
2022/09/18 02:26:39;;;;;;;6.40;1.90;;;13.40;76.80;;;;;;5018428;28;20466;-74
2022/09/18 02:29:12;;;;;;;11.03;2.67;;;13.40;76.80;;;;;;5001583;28;20468;-73
2022/09/18 02:31:40;;;;;;;8.10;2.20;;;13.40;76.90;;;;;;5009611;28;20768;-73
2022/09/18 02:34:12;;;;;;;7.03;2.07;;;13.40;76.90;;;;;;5007714;28;20862;-73
2022/09/18 02:37:00;;;;;;;6.20;2.10;;;13.40;76.90;;;;;;5010552;28;20471;-73
2022/09/18 02:39:41;;;;;;;5.93;2.10;;;13.40;76.90;;;;;;5006042;28;20468;-73
2022/09/18 02:42:24;;;;;;;5.00;1.60;;;13.40;77.00;;;;;;5011831;28;20484;-74
2022/09/18 02:45:03;;;;;;;5.47;1.77;;;13.40;76.90;;;;;;5027936;28;20481;-75
2022/09/18 02:47:47;;;;;;;6.10;1.70;;;13.40;76.90;;;;;;5023229;28;20466;-74
2022/09/18 02:50:22;;;;;;;5.30;1.80;;;13.40;76.70;;;;;;5010171;28;20464;-73
2022/09/18 02:52:55;;;;;;;8.63;2.20;;;13.30;76.80;;;;;;5014320;28;20487;-74
2022/09/18 02:55:27;;;;;;;4.93;1.60;;;13.30;77.00;;;;;;5015434;28;21202;-74
2022/09/18 02:57:59;;;;;;;7.53;1.70;;;13.40;77.00;;;;;;5016810;28;20489;-74
2022/09/18 03:00:30;;;;;;;5.17;2.30;;;13.30;76.90;;;;;;5014017;28;20473;-74
2022/09/18 03:03:01;;;;;;;7.80;1.53;;;13.30;76.90;;;;;;5006954;28;20479;-74
2022/09/18 03:05:34;;;;;;;8.03;1.80;;;13.40;76.80;;;;;;5003019;28;21389;-74
2022/09/18 03:08:02;;;;;;;4.23;1.43;;;13.40;76.70;;;;;;5000752;28;20455;-75
2022/09/18 03:10:31;;;;;;;8.73;1.70;;;13.40;76.80;;;;;;5002247;28;20450;-72
2022/09/18 03:13:00;;;;;;;5.70;1.90;;;13.40;76.90;;;;;;5002840;28;20477;-74
2022/09/18 03:15:29;;;;;;;8.20;1.80;;;13.40;76.80;;;;;;5001120;28;20514;-73
2022/09/18 03:17:57;;;;;;;7.43;1.83;;;13.40;76.80;;;;;;4997920;28;20472;-73
2022/09/18 03:20:25;;;;;;;7.77;3.20;;;13.40;76.80;;;;;;5016792;28;20473;-73
2022/09/18 03:22:53;;;;;;;9.97;2.30;;;13.40;76.80;;;;;;5018910;28;20484;-75
2022/09/18 03:25:21;;;;;;;5.60;1.60;;;13.40;76.80;;;;;;4995334;28;20532;-75
2022/09/18 03:27:54;;;;;;;7.23;2.27;;;13.40;76.80;;;;;;5003167;28;20559;-74
2022/09/18 03:30:30;;;;;;;5.67;1.70;;;13.40;76.80;;;;;;5004689;28;21293;-73
2022/09/18 03:32:58;;;;;;;7.63;1.83;;;13.40;76.70;;;;;;5013576;28;21047;-73
2022/09/18 03:35:27;;;;;;;8.20;1.90;;;13.50;76.70;;;;;;4998638;28;20561;-74
2022/09/18 03:37:56;;;;;;;4.50;1.60;;;13.50;76.70;;;;;;5014174;28;20471;-74
2022/09/18 03:40:26;;;;;;;9.97;1.90;;;13.50;76.70;;;;;;5000862;28;20488;-74
2022/09/18 03:42:55;;;;;;;7.10;2.00;;;13.50;76.70;;;;;;5004387;28;21041;-74
2022/09/18 03:45:25;;;;;;;5.53;1.73;;;13.50;76.70;;;;;;5007322;28;20457;-74
2022/09/18 03:47:55;;;;;;;4.70;1.70;;;13.50;76.70;;;;;;5015180;28;20480;-74
2022/09/18 03:50:24;;;;;;;5.27;1.47;;;13.50;76.70;;;;;;5018005;28;20454;-74
2022/09/18 03:52:52;;;;;;;7.67;1.87;;;13.50;76.70;;;;;;4997036;28;20478;-74
2022/09/18 03:55:49;;;;;;;7.37;1.50;;;13.50;76.40;;;;;;4999385;28;20475;-74
2022/09/18 03:58:43;;;;;;;5.90;1.67;;;13.50;76.40;;;;;;5000866;28;20468;-74
2022/09/18 04:01:36;;;;;;;7.63;1.80;;;13.40;76.60;;;;;;4996223;28;20509;-74
2022/09/18 04:04:24;;;;;;;5.83;2.03;;;13.40;76.70;;;;;;5002512;28;20572;-75
2022/09/18 04:07:11;;;;;;;3.90;1.40;;;13.40;76.80;;;;;;4997502;28;20448;-74
2022/09/18 04:10:08;;;;;;;6.50;1.80;;;13.40;76.80;;;;;;4998477;28;20459;-74
2022/09/18 04:12:38;;;;;;;6.03;1.40;;;13.30;76.80;;;;;;5000907;28;20494;-74
2022/09/18 04:15:15;;;;;;;5.73;1.60;;;13.30;76.90;;;;;;4996569;28;20480;-74
2022/09/18 04:17:44;;;;;;;6.90;1.60;;;13.30;76.90;;;;;;5015574;28;20445;-74
2022/09/18 04:20:13;;;;;;;5.13;1.33;;;13.30;77.00;;;;;;5007807;28;20465;-74
2022/09/18 04:22:42;;;;;;;7.17;2.00;;;13.30;77.00;;;;;;5000150;28;20493;-74
2022/09/18 04:25:10;;;;;;;5.83;1.90;;;13.30;77.10;;;;;;4995173;28;20479;-74
2022/09/18 04:27:39;;;;;;;3.73;1.40;;;13.20;77.10;;;;;;5012084;28;20469;-74
2022/09/18 04:30:09;;;;;;;5.03;1.60;;;13.20;77.20;;;;;;4998153;28;21153;-74
2022/09/18 04:32:39;;;;;;;4.83;1.50;;;13.20;77.20;;;;;;5015324;28;20484;-73
2022/09/18 04:35:08;;;;;;;4.60;1.73;;;13.20;77.30;;;;;;5009531;28;20464;-74
2022/09/18 04:37:37;;;;;;;5.63;1.97;;;13.20;77.40;;;;;;5003102;28;20493;-74
2022/09/18 04:40:06;;;;;;;4.80;1.57;;;13.20;77.40;;;;;;5013458;28;20685;-73
2022/09/18 04:42:34;;;;;;;5.77;1.70;;;13.20;77.40;;;;;;4999021;28;20485;-73
2022/09/18 04:45:03;;;;;;;7.43;1.77;;;13.20;77.40;;;;;;5004280;28;20494;-74
2022/09/18 04:47:31;;;;;;;4.53;1.33;;;13.20;77.50;;;;;;5002911;28;20465;-74
2022/09/18 04:49:59;;;;;;;7.33;2.40;;;13.20;77.60;;;;;;5001557;28;20465;-74
2022/09/18 04:52:29;;;;;;;6.00;1.80;;;13.20;77.60;;;;;;5015199;28;20489;-74
2022/09/18 04:54:59;;;;;;;7.00;1.90;;;13.20;77.60;;;;;;5013674;28;20474;-74
2022/09/18 04:57:27;;;;;;;9.10;2.17;;;13.10;77.70;;;;;;5012485;28;21292;-74
2022/09/18 04:59:55;;;;;;;6.30;2.20;;;13.10;77.80;;;;;;4997331;28;20546;-75
2022/09/18 05:02:23;;;;;;;4.30;1.60;;;13.10;77.90;;;;;;4999545;28;20907;-74
2022/09/18 05:04:52;;;;;;;4.90;1.57;;;13.10;77.80;;;;;;5009819;28;20470;-74
2022/09/18 05:07:27;;;;;;;10.73;1.93;;;13.10;77.90;;;;;;5000295;28;20457;-74
2022/09/18 05:09:55;;;;;;;6.30;2.70;;;13.10;77.90;;;;;;5016414;28;20965;-75
2022/09/18 05:12:24;;;;;;;6.47;1.93;;;13.10;78.10;;;;;;4998831;28;20712;-74
2022/09/18 05:14:52;;;;;;;6.30;1.87;;;13.10;78.10;;;;;;4999042;28;20495;-76
2022/09/18 05:17:20;;;;;;;6.03;2.00;;;13.10;78.20;;;;;;5000219;28;20448;-75
2022/09/18 05:19:59;;;;;;;6.07;1.60;;;13.10;78.10;;;;;;5010343;28;20861;-76
2022/09/18 05:22:34;;;;;;;4.93;1.67;;;13.10;78.20;;;;;;5007100;28;20895;-77
2022/09/18 05:25:03;;;;;;;6.40;2.03;;;13.10;78.30;;;;;;5007904;28;20489;-74
2022/09/18 05:27:32;;;;;;;5.13;1.50;;;13.10;78.40;;;;;;5019520;28;20461;-74
2022/09/18 05:30:00;;;;;;;4.67;1.50;;;13.10;78.50;;;;;;5019660;28;21100;-76
2022/09/18 05:32:54;;;;;;;7.17;1.80;;;13.20;78.50;;;;;;5002075;28;21021;-75
2022/09/18 05:35:27;;;;;;;9.57;1.70;;;13.20;78.50;;;;;;5015659;28;20468;-74
2022/09/18 05:37:56;;;;;;;5.87;1.60;;;13.20;78.50;;;;;;5003471;28;20468;-75
2022/09/18 05:40:29;;;;;;;7.70;1.77;;;13.20;78.60;;;;;;5007246;28;20523;-75
2022/09/18 05:43:01;;;;;;;5.10;1.50;;;13.20;78.50;;;;;;5010643;28;20468;-75
2022/09/18 05:45:31;;;;;;;4.90;1.20;;;13.20;78.60;;;;;;5013763;28;20472;-75
2022/09/18 05:48:03;;;;;;;6.40;1.93;;;13.20;78.60;;;;;;5013749;28;20546;-76
2022/09/18 05:50:32;;;;;;;4.60;1.80;;;13.30;78.50;;;;;;5001999;28;20458;-75
2022/09/18 05:53:02;;;;;;;4.63;1.60;;;13.30;78.60;;;;;;5003923;28;21652;-74
2022/09/18 05:55:39;;;;;;;4.33;1.37;;;13.30;78.60;;;;;;5012888;28;20488;-75
2022/09/18 05:58:14;;;;;;;4.00;1.20;;;13.30;78.50;;;;;;5003030;28;20457;-74
2022/09/18 06:00:43;;;;;;;5.63;1.70;;;13.20;78.60;;;;;;5020078;28;20527;-75
2022/09/18 06:03:17;;;;;;;4.70;1.77;;;13.30;78.70;;;;;;5000370;28;20565;-74
2022/09/18 06:05:51;;;;;;;7.90;1.70;;;13.30;78.50;;;;;;4997733;28;20466;-75
2022/09/18 06:08:21;;;;;;;5.60;1.57;;;13.30;78.50;;;;;;5019567;28;20452;-75
2022/09/18 06:10:50;;;;;;;4.90;1.30;;;13.20;78.60;;;;;;5007559;28;20528;-75
2022/09/18 06:13:20;;;;;;;6.00;2.20;;;13.20;78.70;;;;;;5005477;28;21073;-73
2022/09/18 06:15:51;;;;;;;5.63;1.63;;;13.30;78.60;;;;;;5013401;28;20469;-73
2022/09/18 06:18:49;;;;;;;6.20;1.27;;;13.20;78.60;;;;;;4994633;28;20513;-73
2022/09/18 06:21:17;;;;;;;4.47;2.00;;;13.20;78.70;;;;;;5003054;28;20519;-75
2022/09/18 06:23:45;;;;;;;3.37;1.10;;;13.20;78.70;;;;;;5008698;28;21006;-74
2022/09/18 06:26:24;;;;;;;4.57;1.30;;;13.30;78.70;;;;;;5005571;28;20468;-74
2022/09/18 06:28:54;;;;;;;4.63;1.43;;;13.30;78.80;;;;;;5015928;28;20461;-74
2022/09/18 06:31:21;;;;;;;5.20;1.53;;;13.30;78.80;;;;;;5015024;28;20463;-73
2022/09/18 06:34:01;;;;;;;3.60;1.20;;;13.30;78.70;;;;;;5017302;28;20479;-73
2022/09/18 06:36:29;;;;;;;8.20;1.50;;;13.30;78.70;;;;;;4998445;28;21042;-73
2022/09/18 06:39:12;;;;;;;4.33;1.43;;;13.30;78.80;;;;;;4998711;28;20467;-73
2022/09/18 06:41:41;;;;;;;4.23;1.40;;;13.30;78.70;;;;;;5002995;28;20469;-73
2022/09/18 06:44:20;;;;;;;5.17;1.40;;;13.30;78.70;;;;;;5005035;28;21100;-73
2022/09/18 06:46:54;;;;;;;4.00;1.60;;;13.20;78.70;;;;;;5013948;28;20607;-74
2022/09/18 06:49:27;;;;;;;3.73;1.40;;;13.20;78.90;;;;;;5014815;28;20469;-73
2022/09/18 06:51:55;;;;;;;7.40;1.60;;;13.30;78.90;;;;;;4999329;28;20465;-74
2022/09/18 06:54:23;;;;;;;4.33;1.20;;;13.20;78.80;;;;;;4997459;28;20995;-74
2022/09/18 06:56:51;;;;;;;4.37;1.40;;;13.30;78.90;;;;;;4997968;28;21545;-74
2022/09/18 06:59:22;;;;;;;5.20;1.93;;;13.30;78.80;;;;;;5015841;28;20623;-74
2022/09/18 07:01:51;;;;;;;3.80;1.10;;;13.30;78.90;;;;;;5014661;28;20488;-74
2022/09/18 07:04:28;;;;;;;4.33;1.20;;;13.30;78.90;;;;;;5002835;28;20476;-74
2022/09/18 07:06:57;;;;;;;4.40;1.30;;;13.20;78.90;;;;;;5008337;28;20467;-74
2022/09/18 07:09:28;;;;;;;7.57;1.33;;;13.20;78.90;;;;;;5002834;28;20494;-74
2022/09/18 07:12:02;;;;;;;4.73;1.20;;;13.20;78.90;;;;;;5021470;28;20513;-74
2022/09/18 07:14:50;;;;;;;4.90;1.53;;;13.30;79.00;;;;;;5017084;28;20496;-74
2022/09/18 07:17:19;;;;;;;4.97;1.30;;;13.30;79.00;;;;;;5003663;28;20454;-74
2022/09/18 07:19:53;;;;;;;5.47;1.60;;;13.30;79.00;;;;;;5013382;28;20462;-74
2022/09/18 07:22:27;;;;;;;6.50;1.77;;;13.30;79.20;;;;;;5012853;28;20503;-73
2022/09/18 07:24:55;;;;;;;3.80;1.20;;;13.40;79.10;;;;;;5003121;28;20505;-74
2022/09/18 07:27:23;;;;;;;4.63;1.20;;;13.40;79.00;;;;;;5001987;28;20467;-74
2022/09/18 07:29:53;;;;;;;3.40;1.10;;;13.40;79.10;;;;;;5017763;28;20466;-74
2022/09/18 07:32:21;;;;;;;4.20;1.13;;;13.40;79.10;;;;;;5014444;28;20871;-74
2022/09/18 07:34:49;;;;;;;6.10;1.20;;;13.50;79.00;;;;;;5004775;28;20481;-74
2022/09/18 07:37:26;;;;;;;4.93;1.20;;;13.50;79.00;;;;;;5000203;28;20456;-74
2022/09/18 07:40:11;;;;;;;4.97;1.47;;;13.50;79.10;;;;;;5003521;28;20491;-74
2022/09/18 07:43:04;;;;;;;5.87;1.57;;;13.50;79.00;;;;;;4998686;28;20473;-74
2022/09/18 07:45:34;;;;;;;4.40;0.90;;;13.60;79.00;;;;;;5010542;28;20896;-74
2022/09/18 07:48:04;;;;;;;3.90;1.20;;;13.60;79.00;;;;;;4996083;28;20475;-74
2022/09/18 07:50:35;;;;;;;5.20;1.20;;;13.60;78.90;;;;;;5004221;28;20461;-74
2022/09/18 07:53:04;;;;;;;6.60;1.37;;;13.70;78.90;;;;;;5013552;28;20845;-74
2022/09/18 07:55:37;;;;;;;3.07;1.00;;;13.70;78.90;;;;;;4998930;28;21061;-74
2022/09/18 07:58:06;;;;;;;5.37;1.57;;;13.70;78.90;;;;;;4996322;28;20516;-75
2022/09/18 08:01:02;;;;;;;3.60;1.27;;;13.80;78.70;;;;;;4995225;28;20483;-74
2022/09/18 08:03:32;;;;;;;4.20;1.20;;;13.80;78.70;;;;;;4998506;28;20479;-74
2022/09/18 08:06:09;;;;;;;5.33;1.10;;;13.80;78.70;;;;;;4998590;28;20452;-74
2022/09/18 08:08:42;;;;;;;5.20;1.20;;;13.80;78.70;;;;;;4997481;28;20460;-74
2022/09/18 08:11:24;;;;;;;3.40;1.37;;;13.80;78.70;;;;;;5004316;28;20564;-74
2022/09/18 08:13:59;;;;;;;6.47;1.30;;;13.80;78.80;;;;;;5004347;28;20487;-75
2022/09/18 08:16:47;;;;;;;5.07;1.20;;;13.80;78.80;;;;;;5014195;28;20474;-75
2022/09/18 08:19:26;;;;;;;3.87;1.00;;;13.90;78.80;;;;;;5011289;28;20471;-75
2022/09/18 08:22:08;;;;;;;3.53;1.03;;;13.90;78.70;;;;;;4998100;28;20457;-75
2022/09/18 08:24:42;;;;;;;3.33;0.90;;;13.90;78.70;;;;;;5007270;28;20478;-75
2022/09/18 08:27:10;;;;;;;4.90;1.37;;;13.90;78.80;;;;;;5001219;28;20460;-75
2022/09/18 08:29:40;;;;;;;3.53;0.93;;;13.90;78.90;;;;;;5003642;28;20469;-75
2022/09/18 08:32:11;;;;;;;4.53;1.40;;;13.90;78.80;;;;;;4999383;28;20468;-75
2022/09/18 08:34:39;;;;;;;4.00;1.40;;;14.00;79.00;;;;;;4998603;28;20461;-75
2022/09/18 08:37:07;;;;;;;3.67;1.13;;;14.00;78.90;;;;;;4998761;28;20458;-75
2022/09/18 08:39:54;;;;;;;3.80;1.00;;;14.10;78.90;;;;;;5003171;28;20452;-75
2022/09/18 08:43:06;;;;;;;4.23;1.20;;;14.10;78.80;;;;;;4993302;28;20550;-75
2022/09/18 08:45:47;;;;;;;4.27;1.20;;;14.10;78.90;;;;;;5012761;28;20484;-75
2022/09/18 08:48:21;;;;;;;4.67;1.60;;;14.10;78.90;;;;;;5009080;28;20463;-75
2022/09/18 08:50:54;;;;;;;3.90;1.03;;;14.10;78.90;;;;;;5013265;28;20825;-75
2022/09/18 08:53:30;;;;;;;3.90;1.40;;;14.10;78.90;;;;;;5009935;28;20528;-75
2022/09/18 08:56:22;;;;;;;4.80;1.33;;;14.20;78.90;;;;;;5001733;28;21065;-75
2022/09/18 08:59:17;;;;;;;4.47;1.10;;;14.20;78.90;;;;;;4998334;28;20461;-75
2022/09/18 09:01:53;;;;;;;6.20;1.90;;;14.20;78.90;;;;;;5016692;28;20464;-75
2022/09/18 09:04:27;;;;;;;3.20;1.00;;;14.20;78.80;;;;;;5019667;28;20480;-75
2022/09/18 09:07:09;;;;;;;4.83;1.30;;;14.20;78.80;;;;;;5010572;28;20471;-76
2022/09/18 09:09:54;;;;;;;17.77;2.27;;;14.20;78.90;;;;;;5007829;28;20453;-75
2022/09/18 09:12:33;;;;;;;4.40;1.40;;;14.20;78.90;;;;;;5004948;28;20527;-75
2022/09/18 09:15:20;;;;;;;4.60;1.47;;;14.20;78.90;;;;;;5006829;28;20933;-75
2022/09/18 09:18:03;;;;;;;5.30;1.40;;;14.30;78.80;;;;;;5027650;28;20580;-75
2022/09/18 09:20:45;;;;;;;4.00;1.43;;;14.30;78.80;;;;;;5020835;28;21284;-74
2022/09/18 09:23:20;;;;;;;8.13;1.67;;;14.20;78.80;;;;;;5016186;28;20519;-75
2022/09/18 09:26:01;;;;;;;7.33;1.67;;;14.20;78.80;;;;;;5027848;28;20491;-73
2022/09/18 09:28:54;;;;;;;16.70;1.93;;;14.20;78.90;;;;;;5007981;28;20579;-74
2022/09/18 09:31:59;;;;;;;7.70;1.60;;;14.20;79.10;;;;;;4996035;28;20612;-75
2022/09/18 09:35:00;;;;;;;9.97;1.70;;;14.20;79.20;;;;;;5028411;28;20461;-74
2022/09/18 09:37:48;;;;;;;9.83;1.30;;;14.20;79.20;;;;;;5010120;28;20468;-75
2022/09/18 09:40:21;;;;;;;4.53;0.90;;;14.20;79.20;;;;;;5000445;28;20553;-74
2022/09/18 09:42:55;;;;;;;4.07;1.30;;;14.20;79.20;;;;;;5021410;28;20551;-75
2022/09/18 09:45:28;;;;;;;5.97;1.20;;;14.20;79.20;;;;;;5005733;28;20477;-75
2022/09/18 09:48:06;;;;;;;3.60;1.00;;;14.30;79.30;;;;;;4998629;28;20452;-75
2022/09/18 09:50:43;;;;;;;3.20;1.07;;;14.30;79.30;;;;;;5013353;28;20464;-75
2022/09/18 09:53:13;;;;;;;4.43;1.17;;;14.30;79.20;;;;;;5005531;28;21031;-75
2022/09/18 09:55:52;;;;;;;3.50;1.20;;;14.30;79.10;;;;;;5019313;28;20453;-75
2022/09/18 09:58:38;;;;;;;4.73;1.03;;;14.30;79.20;;;;;;5004521;28;20870;-75
2022/09/18 10:01:12;;;;;;;3.97;1.20;;;14.30;79.10;;;;;;5008964;28;20461;-75
2022/09/18 10:04:04;;;;;;;5.20;1.50;;;14.30;79.20;;;;;;5018459;28;20490;-75
2022/09/18 10:06:46;;;;;;;4.20;1.23;;;14.30;79.30;;;;;;5015669;28;20837;-75
2022/09/18 10:09:24;;;;;;;9.03;1.23;;;14.30;79.30;;;;;;5010588;28;20516;-75
2022/09/18 10:11:59;;;;;;;4.90;1.20;;;14.30;79.30;;;;;;5017564;28;20460;-75
2022/09/18 10:14:33;;;;;;;4.43;1.27;;;14.30;79.50;;;;;;4997234;28;20502;-75
2022/09/18 10:17:04;;;;;;;3.10;0.80;;;14.30;79.50;;;;;;5007775;28;20471;-75
2022/09/18 10:19:37;;;;;;;4.40;1.03;;;14.40;79.50;;;;;;5009126;28;20557;-75
2022/09/18 10:22:07;;;;;;;4.70;1.00;;;14.40;79.30;;;;;;5015856;28;20480;-75
2022/09/18 10:24:45;;;;;;;4.90;1.03;;;14.40;79.50;;;;;;5005211;28;20460;-75
2022/09/18 10:27:17;;;;;;;5.60;1.00;;;14.40;79.50;;;;;;5010629;28;20503;-75
2022/09/18 10:29:46;;;;;;;6.47;1.10;;;14.40;79.30;;;;;;5004690;28;20531;-75
2022/09/18 10:32:35;;;;;;;4.33;1.20;;;14.40;79.20;;;;;;5002074;28;20468;-75
2022/09/18 10:35:41;;;;;;;3.70;1.10;;;14.40;79.20;;;;;;5016331;28;20556;-75
2022/09/18 10:38:32;;;;;;;4.30;1.10;;;14.40;79.20;;;;;;5000377;28;20464;-75
2022/09/18 10:41:35;;;;;;;3.90;1.10;;;14.40;79.30;;;;;;5010662;28;21029;-75
2022/09/18 10:44:21;;;;;;;4.20;1.40;;;14.50;79.40;;;;;;4997201;28;20488;-75
2022/09/18 10:46:57;;;;;;;4.40;1.27;;;14.50;79.40;;;;;;5011725;28;20555;-75
2022/09/18 10:49:31;;;;;;;6.03;1.73;;;14.60;79.30;;;;;;5010703;28;20813;-75
2022/09/18 10:52:22;;;;;;;3.90;1.40;;;14.60;79.20;;;;;;4995123;28;20508;-75
2022/09/18 10:55:14;;;;;;;4.17;1.20;;;14.70;79.20;;;;;;5003012;28;20544;-75
2022/09/18 10:58:05;;;;;;;5.20;1.40;;;14.70;79.20;;;;;;5002373;28;20511;-75
2022/09/18 11:00:38;;;;;;;6.33;1.70;;;14.80;79.20;;;;;;5016362;28;20536;-75
2022/09/18 11:03:39;;;;;;;4.67;1.50;;;14.80;79.10;;;;;;5015122;28;20479;-75
2022/09/18 11:06:16;;;;;;;4.40;1.37;;;14.90;79.10;;;;;;5005288;28;20544;-74
2022/09/18 11:08:48;;;;;;;4.57;1.60;;;14.90;78.90;;;;;;5000685;28;20508;-74
2022/09/18 11:11:24;;;;;;;6.50;1.10;;;15.00;79.00;;;;;;4998723;28;20473;-75
2022/09/18 11:13:58;;;;;;;8.90;1.60;;;15.00;78.80;;;;;;5012516;28;20479;-75
2022/09/18 11:16:37;;;;;;;5.37;1.50;;;15.00;78.80;;;;;;4995010;28;20496;-75
2022/09/18 11:19:12;;;;;;;5.47;1.50;;;15.10;78.80;;;;;;5012788;28;20491;-75
2022/09/18 11:21:45;;;;;;;3.70;1.60;;;15.10;78.30;;;;;;5012340;28;20484;-75
2022/09/18 11:24:22;;;;;;;5.70;1.40;;;15.10;78.00;;;;;;5005753;28;20489;-75
2022/09/18 11:26:52;;;;;;;4.13;1.10;;;15.10;77.80;;;;;;5014052;28;20490;-75
2022/09/18 11:29:29;;;;;;;7.63;1.33;;;15.10;77.60;;;;;;5014054;28;20462;-75
2022/09/18 11:32:03;;;;;;;9.30;1.57;;;15.00;77.50;;;;;;4998365;28;20468;-75
2022/09/18 11:34:38;;;;;;;5.20;1.23;;;15.00;77.50;;;;;;5001548;28;20449;-75
2022/09/18 11:37:13;;;;;;;7.93;1.67;;;15.00;77.60;;;;;;5002943;28;20457;-75
2022/09/18 11:39:50;;;;;;;6.73;1.53;;;15.00;77.50;;;;;;5000364;28;20964;-75
2022/09/18 11:42:18;;;;;;;4.30;1.23;;;15.00;77.40;;;;;;5013636;28;20496;-75
2022/09/18 11:44:49;;;;;;;3.90;1.47;;;15.00;77.00;;;;;;5013073;28;20468;-75
2022/09/18 11:47:31;;;;;;;6.87;1.80;;;15.00;77.00;;;;;;4996586;28;20469;-76
2022/09/18 11:50:11;;;;;;;6.90;1.57;;;15.00;77.00;;;;;;5015827;28;20461;-76
2022/09/18 11:52:43;;;;;;;4.87;1.63;;;15.00;76.80;;;;;;5009347;28;20899;-75
2022/09/18 11:55:30;;;;;;;5.20;1.43;;;15.00;76.80;;;;;;5011375;28;20815;-75
2022/09/18 11:58:02;;;;;;;6.13;1.77;;;15.00;76.70;;;;;;5001975;28;20472;-76
2022/09/18 12:00:36;;;;;;;4.23;1.30;;;15.00;76.70;;;;;;5001395;28;20511;-75
2022/09/18 12:03:14;;;;;;;5.60;1.10;;;15.00;76.70;;;;;;5016330;28;20479;-75
2022/09/18 12:05:52;;;;;;;3.93;1.17;;;15.00;76.50;;;;;;5004458;28;20488;-75
2022/09/18 12:08:38;;;;;;;4.00;1.10;;;15.00;76.40;;;;;;5015075;28;20464;-75
2022/09/18 12:11:19;;;;;;;4.50;0.93;;;15.00;76.40;;;;;;5012260;28;20472;-74
2022/09/18 12:13:57;;;;;;;5.97;1.30;;;15.00;76.20;;;;;;4996523;28;21203;-75
2022/09/18 12:16:39;;;;;;;5.23;1.50;;;15.00;76.20;;;;;;4996261;28;20770;-75
2022/09/18 12:19:13;;;;;;;3.87;1.00;;;15.10;76.10;;;;;;5013179;28;20552;-75
2022/09/18 12:21:47;;;;;;;4.03;1.40;;;15.10;75.90;;;;;;5011420;28;20462;-75
2022/09/18 12:24:17;;;;;;;6.33;1.23;;;15.10;75.40;;;;;;5002495;28;20539;-75
2022/09/18 12:27:04;;;;;;;5.00;1.13;;;15.10;75.10;;;;;;5011066;28;20535;-75
2022/09/18 12:29:53;;;;;;;5.80;1.40;;;15.10;74.90;;;;;;4993274;28;20528;-75
2022/09/18 12:32:54;;;;;;;7.10;1.47;;;15.10;75.00;;;;;;4995682;28;20484;-75
2022/09/18 12:35:32;;;;;;;3.53;1.00;;;15.10;75.10;;;;;;4995655;28;20514;-74
2022/09/18 12:38:11;;;;;;;5.67;1.20;;;15.10;74.70;;;;;;4993140;28;20461;-75
2022/09/18 12:40:50;;;;;;;8.63;1.37;;;15.10;74.40;;;;;;4993090;28;20457;-75
2022/09/18 12:43:33;;;;;;;7.60;1.37;;;15.10;74.00;;;;;;4998908;28;20523;-75
2022/09/18 12:46:33;;;;;;;5.70;1.30;;;15.10;73.80;;;;;;5003026;28;20533;-75
2022/09/18 12:49:35;;;;;;;4.57;1.00;;;15.20;73.40;;;;;;5003014;28;20566;-75
2022/09/18 12:52:14;;;;;;;5.27;1.17;;;15.10;73.20;;;;;;4996070;28;20459;-75
2022/09/18 12:55:08;;;;;;;4.27;1.00;;;15.10;73.10;;;;;;5001219;28;20465;-75
2022/09/18 12:57:48;;;;;;;5.23;1.50;;;15.10;73.00;;;;;;4996283;28;20499;-76
2022/09/18 13:00:18;;;;;;;4.57;1.50;;;15.20;73.30;;;;;;4993183;28;20534;-75
2022/09/18 13:02:55;;;;;;;4.60;1.00;;;15.20;73.20;;;;;;4999420;28;20508;-75
2022/09/18 13:05:30;;;;;;;4.37;1.37;;;15.20;73.40;;;;;;4993884;28;20895;-74
2022/09/18 13:08:04;;;;;;;5.20;1.13;;;15.20;73.20;;;;;;5013432;28;20522;-75
2022/09/18 13:10:38;;;;;;;5.53;1.43;;;15.20;73.30;;;;;;4997991;28;20534;-75
2022/09/18 13:13:13;;;;;;;5.30;1.17;;;15.30;73.50;;;;;;4993829;28;20480;-75
2022/09/18 13:15:44;;;;;;;5.30;1.43;;;15.30;73.40;;;;;;4995458;28;20452;-75
2022/09/18 13:18:23;;;;;;;3.90;1.33;;;15.20;73.30;;;;;;5001852;28;20449;-75
2022/09/18 13:20:54;;;;;;;4.53;1.60;;;15.20;73.50;;;;;;4995383;28;20502;-75
2022/09/18 13:23:26;;;;;;;6.00;1.50;;;15.20;73.60;;;;;;4991706;28;20527;-75
2022/09/18 13:25:56;;;;;;;4.03;1.37;;;15.20;73.40;;;;;;4994497;28;20453;-74
2022/09/18 13:28:26;;;;;;;4.80;1.30;;;15.20;73.40;;;;;;4995504;28;20477;-74